Lowell Highlands, MA

10 Minute Time Series

23-May-2018 10:30 PM

TimeTempHumidityDewpointBarometerWindSpeedWindGustWind DirRain
23-May-2018 12:10 AM54.9°F85%50.5°F29.907 inHg3 mph8 mph186° (S)0.00 in
23-May-2018 12:20 AM54.8°F86%50.7°F29.902 inHg3 mph8 mph182° (S)0.00 in
23-May-2018 12:30 AM54.8°F86%50.7°F29.903 inHg3 mph9 mph194° (SSW)0.00 in
23-May-2018 12:40 AM54.8°F87%51.0°F29.904 inHg2 mph9 mph192° (SSW)0.00 in
23-May-2018 12:50 AM54.8°F87%51.0°F29.901 inHg2 mph6 mph192° (SSW)0.00 in
23-May-2018 01:00 AM54.8°F88%51.3°F29.898 inHg2 mph6 mph199° (SSW)0.00 in
23-May-2018 01:10 AM54.8°F88%51.3°F29.891 inHg2 mph7 mph200° (SSW)0.00 in
23-May-2018 01:20 AM54.8°F88%51.3°F29.886 inHg2 mph7 mph190° (S)0.00 in
23-May-2018 01:30 AM54.8°F89%51.6°F29.883 inHg2 mph8 mph190° (S)0.00 in
23-May-2018 01:40 AM54.8°F89%51.6°F29.874 inHg2 mph8 mph186° (S)0.00 in
23-May-2018 01:50 AM54.8°F89%51.6°F29.871 inHg2 mph6 mph190° (S)0.00 in
23-May-2018 02:00 AM54.8°F89%51.6°F29.875 inHg1 mph6 mph209° (SSW)0.00 in
23-May-2018 02:10 AM54.8°F90%51.9°F29.874 inHg1 mph3 mph196° (SSW)0.00 in
23-May-2018 02:20 AM54.8°F90%51.9°F29.866 inHg1 mph4 mph209° (SSW)0.00 in
23-May-2018 02:30 AM54.8°F90%51.9°F29.856 inHg1 mph4 mph186° (S)0.00 in
23-May-2018 02:40 AM54.8°F90%51.9°F29.852 inHg2 mph5 mph184° (S)0.00 in
23-May-2018 02:50 AM54.8°F90%51.9°F29.851 inHg2 mph5 mph176° (S)0.00 in
23-May-2018 03:00 AM54.8°F90%51.9°F29.847 inHg1 mph5 mph177° (S)0.00 in
23-May-2018 03:10 AM54.8°F90%51.9°F29.846 inHg1 mph4 mph178° (S)0.00 in
23-May-2018 03:20 AM54.8°F90%51.9°F29.847 inHg0 mph2 mph183° (S)0.00 in
23-May-2018 03:30 AM54.8°F91%52.2°F29.840 inHg0 mph2 mph182° (S)0.00 in
23-May-2018 03:40 AM54.8°F91%52.2°F29.844 inHg0 mph1 mph182° (S)0.00 in
23-May-2018 03:50 AM54.9°F91%52.3°F29.837 inHg0 mph2 mph182° (S)0.00 in
23-May-2018 04:00 AM54.9°F91%52.3°F29.841 inHg0 mph2 mph182° (S)0.00 in
23-May-2018 04:10 AM54.8°F91%52.2°F29.844 inHg0 mph2 mph182° (S)0.00 in
23-May-2018 04:20 AM54.8°F91%52.2°F29.841 inHg0 mph1 mph N/A (N/A)0.00 in
23-May-2018 04:30 AM54.8°F91%52.2°F29.841 inHg1 mph2 mph182° (S)0.00 in
23-May-2018 04:40 AM54.8°F91%52.2°F29.839 inHg1 mph2 mph183° (S)0.00 in
23-May-2018 04:50 AM54.8°F91%52.2°F29.839 inHg0 mph2 mph190° (S)0.00 in
23-May-2018 05:00 AM54.7°F91%52.1°F29.842 inHg1 mph2 mph179° (S)0.00 in
23-May-2018 05:10 AM54.6°F91%52.0°F29.844 inHg1 mph2 mph186° (S)0.00 in
23-May-2018 05:20 AM54.5°F92%52.2°F29.850 inHg1 mph3 mph225° (SW)0.00 in
23-May-2018 05:30 AM54.6°F92%52.3°F29.848 inHg1 mph3 mph196° (SSW)0.00 in
23-May-2018 05:40 AM54.7°F92%52.4°F29.851 inHg1 mph3 mph211° (SSW)0.00 in
23-May-2018 05:50 AM54.8°F93%52.8°F29.847 inHg1 mph3 mph226° (SW)0.00 in
23-May-2018 06:00 AM55.0°F93%53.0°F29.848 inHg1 mph3 mph227° (SW)0.00 in
23-May-2018 06:10 AM55.2°F93%53.2°F29.851 inHg1 mph2 mph227° (SW)0.00 in
23-May-2018 06:20 AM55.4°F93%53.4°F29.852 inHg0 mph2 mph227° (SW)0.00 in
23-May-2018 06:30 AM55.6°F93%53.6°F29.854 inHg0 mph2 mph227° (SW)0.00 in
23-May-2018 06:40 AM55.9°F93%53.9°F29.851 inHg0 mph2 mph182° (S)0.00 in
23-May-2018 06:50 AM56.2°F92%53.9°F29.856 inHg0 mph2 mph238° (WSW)0.00 in
23-May-2018 07:00 AM56.5°F92%54.2°F29.859 inHg0 mph3 mph250° (WSW)0.00 in
23-May-2018 07:10 AM57.1°F92%54.8°F29.859 inHg1 mph4 mph218° (SW)0.00 in
23-May-2018 07:20 AM57.8°F91%55.2°F29.860 inHg1 mph5 mph269° (W)0.00 in
23-May-2018 07:30 AM58.8°F90%55.9°F29.857 inHg1 mph5 mph276° (W)0.00 in
23-May-2018 07:40 AM59.6°F88%56.0°F29.858 inHg2 mph5 mph257° (WSW)0.00 in
23-May-2018 07:50 AM60.5°F86%56.3°F29.861 inHg2 mph7 mph265° (W)0.00 in
23-May-2018 08:00 AM61.1°F86%56.9°F29.860 inHg1 mph7 mph315° (NW)0.00 in
23-May-2018 08:10 AM61.3°F84%56.4°F29.861 inHg2 mph6 mph309° (NW)0.00 in
23-May-2018 08:20 AM62.1°F84%57.2°F29.857 inHg2 mph6 mph292° (WNW)0.00 in
23-May-2018 08:30 AM63.1°F82%57.5°F29.860 inHg2 mph6 mph295° (WNW)0.00 in
23-May-2018 08:40 AM63.8°F80%57.5°F29.859 inHg3 mph8 mph327° (NNW)0.00 in
23-May-2018 08:50 AM64.6°F78%57.6°F29.858 inHg3 mph9 mph342° (NNW)0.00 in
23-May-2018 09:00 AM64.9°F76%57.1°F29.859 inHg4 mph9 mph330° (NNW)0.00 in
23-May-2018 09:10 AM65.0°F75%56.9°F29.856 inHg5 mph13 mph359° (N)0.00 in
23-May-2018 09:20 AM65.4°F75%57.3°F29.854 inHg4 mph13 mph334° (NNW)0.00 in
23-May-2018 09:30 AM66.2°F74%57.7°F29.855 inHg3 mph10 mph327° (NNW)0.00 in
23-May-2018 09:40 AM66.9°F72%57.6°F29.856 inHg3 mph10 mph318° (NW)0.00 in
23-May-2018 09:50 AM67.6°F69%57.1°F29.857 inHg5 mph13 mph352° (N)0.00 in
23-May-2018 10:00 AM67.9°F68%56.9°F29.857 inHg5 mph13 mph352° (N)0.00 in
23-May-2018 10:10 AM68.4°F67%57.0°F29.857 inHg4 mph12 mph327° (NNW)0.00 in
23-May-2018 10:20 AM69.5°F67%58.1°F29.857 inHg3 mph10 mph327° (NNW)0.00 in
23-May-2018 10:30 AM69.4°F65%57.1°F29.861 inHg4 mph8 mph324° (NW)0.00 in
23-May-2018 10:40 AM69.6°F65%57.3°F29.865 inHg4 mph11 mph337° (NNW)0.00 in
23-May-2018 10:50 AM70.5°F64%57.7°F29.867 inHg3 mph11 mph326° (NW)0.00 in
23-May-2018 11:00 AM70.5°F63%57.3°F29.867 inHg4 mph9 mph312° (NW)0.00 in
23-May-2018 11:10 AM71.3°F62%57.6°F29.866 inHg2 mph9 mph305° (NW)0.00 in
23-May-2018 11:20 AM72.2°F58%56.6°F29.866 inHg4 mph12 mph346° (NNW)0.00 in
23-May-2018 11:30 AM72.1°F59%57.0°F29.862 inHg3 mph12 mph324° (NW)0.00 in
23-May-2018 11:40 AM72.9°F56%56.3°F29.864 inHg4 mph10 mph352° (N)0.00 in
23-May-2018 11:50 AM73.5°F55%56.3°F29.865 inHg3 mph10 mph322° (NW)0.00 in
23-May-2018 12:00 PM74.4°F54%56.7°F29.863 inHg3 mph9 mph309° (NW)0.00 in
23-May-2018 12:10 PM73.9°F53%55.7°F29.856 inHg4 mph11 mph342° (NNW)0.00 in
23-May-2018 12:20 PM74.8°F52%56.0°F29.855 inHg4 mph11 mph308° (NW)0.00 in
23-May-2018 12:30 PM74.8°F51%55.4°F29.854 inHg5 mph10 mph341° (NNW)0.00 in
23-May-2018 12:40 PM75.7°F51%56.3°F29.852 inHg3 mph10 mph313° (NW)0.00 in
23-May-2018 12:50 PM77.6°F48%56.3°F29.851 inHg2 mph8 mph334° (NNW)0.00 in
23-May-2018 01:00 PM77.4°F48%56.2°F29.852 inHg3 mph6 mph310° (NW)0.00 in
23-May-2018 01:10 PM78.6°F47%56.7°F29.844 inHg2 mph6 mph303° (WNW)0.00 in
23-May-2018 01:20 PM78.7°F45%55.6°F29.842 inHg3 mph10 mph343° (NNW)0.00 in
23-May-2018 01:30 PM79.0°F45%55.8°F29.841 inHg3 mph10 mph314° (NW)0.00 in
23-May-2018 01:40 PM79.7°F43%55.2°F29.838 inHg3 mph9 mph346° (NNW)0.00 in
23-May-2018 01:50 PM79.1°F44%55.3°F29.830 inHg4 mph11 mph24° (NNE)0.00 in
23-May-2018 02:00 PM80.7°F41%54.8°F29.827 inHg3 mph11 mph279° (W)0.00 in
23-May-2018 02:10 PM81.1°F38%53.1°F29.827 inHg4 mph10 mph331° (NNW)0.00 in
23-May-2018 02:20 PM81.8°F39%54.4°F29.822 inHg3 mph10 mph335° (NNW)0.00 in
23-May-2018 02:30 PM82.5°F35%52.1°F29.823 inHg4 mph13 mph330° (NNW)0.00 in
23-May-2018 02:40 PM82.7°F36%53.0°F29.816 inHg2 mph13 mph332° (NNW)0.00 in
23-May-2018 02:50 PM83.5°F33%51.3°F29.812 inHg3 mph11 mph319° (NW)0.00 in
23-May-2018 03:00 PM82.9°F33%50.8°F29.814 inHg4 mph11 mph333° (NNW)0.00 in
23-May-2018 03:10 PM84.2°F34%52.8°F29.811 inHg2 mph9 mph306° (NW)0.00 in
23-May-2018 03:20 PM83.9°F30%49.1°F29.810 inHg5 mph10 mph340° (NNW)0.00 in
23-May-2018 03:30 PM83.9°F29%48.2°F29.809 inHg4 mph18 mph337° (NNW)0.00 in
23-May-2018 03:40 PM83.4°F31%49.6°F29.809 inHg4 mph18 mph336° (NNW)0.00 in
23-May-2018 03:50 PM82.7°F32%49.8°F29.808 inHg4 mph13 mph337° (NNW)0.00 in
23-May-2018 04:00 PM82.6°F32%49.7°F29.810 inHg3 mph13 mph311° (NW)0.00 in
23-May-2018 04:10 PM82.1°F33%50.1°F29.810 inHg4 mph12 mph322° (NW)0.00 in
23-May-2018 04:20 PM82.0°F32%49.2°F29.808 inHg3 mph12 mph329° (NNW)0.00 in
23-May-2018 04:30 PM82.9°F32%50.0°F29.806 inHg3 mph8 mph344° (NNW)0.00 in
23-May-2018 04:40 PM83.8°F31%49.9°F29.807 inHg4 mph11 mph309° (NW)0.00 in
23-May-2018 04:50 PM83.2°F29%47.6°F29.808 inHg3 mph11 mph313° (NW)0.00 in
23-May-2018 05:00 PM83.0°F30%48.3°F29.806 inHg3 mph11 mph320° (NW)0.00 in
23-May-2018 05:10 PM83.3°F32%50.3°F29.805 inHg4 mph8 mph324° (NW)0.00 in
23-May-2018 05:20 PM83.0°F30%48.3°F29.804 inHg5 mph15 mph300° (WNW)0.00 in
23-May-2018 05:30 PM82.4°F30%47.8°F29.808 inHg6 mph15 mph320° (NW)0.00 in
23-May-2018 05:40 PM81.7°F32%48.9°F29.807 inHg5 mph15 mph323° (NW)0.00 in
23-May-2018 05:50 PM81.4°F32%48.7°F29.808 inHg5 mph12 mph332° (NNW)0.00 in
23-May-2018 06:00 PM81.4°F33%49.5°F29.806 inHg4 mph11 mph330° (NNW)0.00 in
23-May-2018 06:10 PM81.4°F34%50.3°F29.809 inHg3 mph9 mph321° (NW)0.00 in
23-May-2018 06:20 PM81.2°F34%50.1°F29.813 inHg4 mph9 mph330° (NNW)0.00 in
23-May-2018 06:30 PM81.1°F35%50.8°F29.816 inHg2 mph10 mph318° (NW)0.00 in
23-May-2018 06:40 PM80.9°F34%49.9°F29.823 inHg3 mph10 mph314° (NW)0.00 in
23-May-2018 06:50 PM80.4°F35%50.2°F29.825 inHg4 mph13 mph318° (NW)0.00 in
23-May-2018 07:00 PM80.0°F36%50.6°F29.831 inHg4 mph13 mph314° (NW)0.00 in
23-May-2018 07:10 PM79.6°F37%51.0°F29.834 inHg2 mph10 mph315° (NW)0.00 in
23-May-2018 07:20 PM79.1°F38%51.3°F29.839 inHg2 mph6 mph324° (NW)0.00 in
23-May-2018 07:30 PM78.7°F38%50.9°F29.842 inHg1 mph6 mph333° (NNW)0.00 in
23-May-2018 07:40 PM78.3°F39%51.3°F29.850 inHg2 mph5 mph3° (N)0.00 in
23-May-2018 07:50 PM77.8°F41%52.2°F29.860 inHg2 mph5 mph325° (NW)0.00 in
23-May-2018 08:00 PM77.2°F42%52.3°F29.862 inHg2 mph5 mph351° (N)0.00 in
23-May-2018 08:10 PM76.9°F43%52.7°F29.859 inHg1 mph5 mph342° (NNW)0.00 in
23-May-2018 08:20 PM76.5°F44%52.9°F29.865 inHg1 mph3 mph11° (N)0.00 in
23-May-2018 08:30 PM76.0°F45%53.1°F29.873 inHg1 mph5 mph356° (N)0.00 in
23-May-2018 08:40 PM75.3°F46%53.1°F29.885 inHg5 mph10 mph1° (N)0.00 in
23-May-2018 08:50 PM74.6°F47%53.0°F29.895 inHg5 mph12 mph14° (NNE)0.00 in
23-May-2018 09:00 PM73.7°F48%52.8°F29.902 inHg5 mph12 mph14° (NNE)0.00 in
23-May-2018 09:10 PM73.1°F48%52.2°F29.910 inHg4 mph12 mph13° (NNE)0.00 in
23-May-2018 09:20 PM72.6°F49%52.3°F29.920 inHg4 mph12 mph6° (N)0.00 in
23-May-2018 09:30 PM72.2°F48%51.4°F29.926 inHg4 mph10 mph5° (N)0.00 in
23-May-2018 09:40 PM72.0°F48%51.2°F29.926 inHg4 mph10 mph12° (NNE)0.00 in
23-May-2018 09:50 PM71.6°F49%51.4°F29.928 inHg3 mph9 mph17° (NNE)0.00 in
23-May-2018 10:00 PM71.3°F50%51.7°F29.931 inHg2 mph7 mph11° (N)0.00 in
23-May-2018 10:10 PM70.9°F50%51.3°F29.936 inHg2 mph5 mph11° (N)0.00 in
23-May-2018 10:20 PM70.6°F51%51.6°F29.937 inHg2 mph5 mph25° (NNE)0.00 in
23-May-2018 10:30 PM70.1°F56%53.7°F29.944 inHg2 mph5 mph51° (NE)0.00 in